sensor_id;sensor_type;location;lat;lon;timestamp;P1;durP1;ratioP1;P2;durP2;ratioP2
8312;SDS011;4194;43.408;24.626;2023-05-07T00:00:00;4.13;;;3.23;;
8312;SDS011;4194;43.408;24.626;2023-05-07T00:02:26;5.50;;;2.67;;
8312;SDS011;4194;43.408;24.626;2023-05-07T00:04:52;4.00;;;2.80;;
8312;SDS011;4194;43.408;24.626;2023-05-07T00:07:17;7.10;;;2.93;;
8312;SDS011;4194;43.408;24.626;2023-05-07T00:09:43;5.63;;;3.00;;
8312;SDS011;4194;43.408;24.626;2023-05-07T00:12:09;4.77;;;3.33;;
8312;SDS011;4194;43.408;24.626;2023-05-07T00:14:35;8.17;;;3.50;;
8312;SDS011;4194;43.408;24.626;2023-05-07T00:17:00;9.97;;;3.23;;
8312;SDS011;4194;43.408;24.626;2023-05-07T00:19:26;4.07;;;3.10;;
8312;SDS011;4194;43.408;24.626;2023-05-07T00:21:52;4.17;;;2.80;;
8312;SDS011;4194;43.408;24.626;2023-05-07T00:24:19;4.33;;;3.30;;
8312;SDS011;4194;43.408;24.626;2023-05-07T00:26:44;4.87;;;3.37;;
8312;SDS011;4194;43.408;24.626;2023-05-07T00:29:10;4.00;;;3.37;;
8312;SDS011;4194;43.408;24.626;2023-05-07T00:31:36;4.90;;;3.00;;
8312;SDS011;4194;43.408;24.626;2023-05-07T00:34:02;7.20;;;3.30;;
8312;SDS011;4194;43.408;24.626;2023-05-07T00:36:27;5.57;;;2.60;;
8312;SDS011;4194;43.408;24.626;2023-05-07T00:38:54;7.77;;;3.40;;
8312;SDS011;4194;43.408;24.626;2023-05-07T00:41:20;4.60;;;3.27;;
8312;SDS011;4194;43.408;24.626;2023-05-07T00:43:46;7.13;;;3.60;;
8312;SDS011;4194;43.408;24.626;2023-05-07T00:46:12;4.50;;;3.53;;
8312;SDS011;4194;43.408;24.626;2023-05-07T00:48:39;5.00;;;3.63;;
8312;SDS011;4194;43.408;24.626;2023-05-07T00:51:05;5.00;;;3.73;;
8312;SDS011;4194;43.408;24.626;2023-05-07T00:53:32;5.00;;;3.07;;
8312;SDS011;4194;43.408;24.626;2023-05-07T00:55:57;6.30;;;4.17;;
8312;SDS011;4194;43.408;24.626;2023-05-07T00:58:25;5.83;;;4.00;;
8312;SDS011;4194;43.408;24.626;2023-05-07T01:00:51;6.43;;;4.10;;
8312;SDS011;4194;43.408;24.626;2023-05-07T01:03:17;5.63;;;4.47;;
8312;SDS011;4194;43.408;24.626;2023-05-07T01:05:43;7.37;;;4.57;;
8312;SDS011;4194;43.408;24.626;2023-05-07T01:08:11;4.80;;;4.30;;
8312;SDS011;4194;43.408;24.626;2023-05-07T01:10:37;4.90;;;3.97;;
8312;SDS011;4194;43.408;24.626;2023-05-07T01:13:03;5.57;;;3.43;;
8312;SDS011;4194;43.408;24.626;2023-05-07T01:15:30;6.13;;;4.07;;
8312;SDS011;4194;43.408;24.626;2023-05-07T01:17:56;5.30;;;3.50;;
8312;SDS011;4194;43.408;24.626;2023-05-07T01:20:22;4.37;;;3.97;;
8312;SDS011;4194;43.408;24.626;2023-05-07T01:22:48;6.53;;;4.23;;
8312;SDS011;4194;43.408;24.626;2023-05-07T01:25:15;8.07;;;3.63;;
8312;SDS011;4194;43.408;24.626;2023-05-07T01:27:41;5.53;;;3.30;;
8312;SDS011;4194;43.408;24.626;2023-05-07T01:30:07;6.03;;;3.93;;
8312;SDS011;4194;43.408;24.626;2023-05-07T01:32:35;4.77;;;4.00;;
8312;SDS011;4194;43.408;24.626;2023-05-07T01:35:15;6.50;;;3.80;;
8312;SDS011;4194;43.408;24.626;2023-05-07T01:37:44;4.17;;;3.77;;
8312;SDS011;4194;43.408;24.626;2023-05-07T01:40:10;7.10;;;4.40;;
8312;SDS011;4194;43.408;24.626;2023-05-07T01:42:36;6.33;;;4.10;;
8312;SDS011;4194;43.408;24.626;2023-05-07T01:45:02;4.20;;;3.80;;
8312;SDS011;4194;43.408;24.626;2023-05-07T01:47:29;5.77;;;3.33;;
8312;SDS011;4194;43.408;24.626;2023-05-07T01:49:55;5.47;;;3.30;;
8312;SDS011;4194;43.408;24.626;2023-05-07T01:52:22;6.60;;;4.20;;
8312;SDS011;4194;43.408;24.626;2023-05-07T01:54:47;5.20;;;3.70;;
8312;SDS011;4194;43.408;24.626;2023-05-07T01:57:13;4.27;;;3.73;;
8312;SDS011;4194;43.408;24.626;2023-05-07T01:59:39;7.77;;;3.90;;
8312;SDS011;4194;43.408;24.626;2023-05-07T02:02:04;4.07;;;3.40;;
8312;SDS011;4194;43.408;24.626;2023-05-07T02:04:30;5.37;;;3.80;;
8312;SDS011;4194;43.408;24.626;2023-05-07T02:06:56;6.73;;;4.33;;
8312;SDS011;4194;43.408;24.626;2023-05-07T02:09:21;6.67;;;4.47;;
8312;SDS011;4194;43.408;24.626;2023-05-07T02:11:48;6.67;;;4.33;;
8312;SDS011;4194;43.408;24.626;2023-05-07T02:14:13;6.83;;;4.67;;
8312;SDS011;4194;43.408;24.626;2023-05-07T02:16:40;5.63;;;4.30;;
8312;SDS011;4194;43.408;24.626;2023-05-07T02:19:06;7.90;;;4.63;;
8312;SDS011;4194;43.408;24.626;2023-05-07T02:21:32;5.03;;;4.47;;
8312;SDS011;4194;43.408;24.626;2023-05-07T02:23:57;5.40;;;4.67;;
8312;SDS011;4194;43.408;24.626;2023-05-07T02:26:23;7.63;;;4.20;;
8312;SDS011;4194;43.408;24.626;2023-05-07T02:28:50;5.67;;;4.47;;
8312;SDS011;4194;43.408;24.626;2023-05-07T02:31:17;5.93;;;4.23;;
8312;SDS011;4194;43.408;24.626;2023-05-07T02:33:42;6.17;;;4.10;;
8312;SDS011;4194;43.408;24.626;2023-05-07T02:36:08;7.13;;;4.40;;
8312;SDS011;4194;43.408;24.626;2023-05-07T02:38:35;7.70;;;4.80;;
8312;SDS011;4194;43.408;24.626;2023-05-07T02:41:01;7.40;;;4.70;;
8312;SDS011;4194;43.408;24.626;2023-05-07T02:43:27;8.07;;;4.57;;
8312;SDS011;4194;43.408;24.626;2023-05-07T02:46:03;7.47;;;4.93;;
8312;SDS011;4194;43.408;24.626;2023-05-07T02:48:29;8.80;;;5.00;;
8312;SDS011;4194;43.408;24.626;2023-05-07T02:50:55;7.07;;;4.70;;
8312;SDS011;4194;43.408;24.626;2023-05-07T02:53:20;5.47;;;4.90;;
8312;SDS011;4194;43.408;24.626;2023-05-07T02:55:46;9.30;;;5.33;;
8312;SDS011;4194;43.408;24.626;2023-05-07T02:58:12;6.00;;;5.00;;
8312;SDS011;4194;43.408;24.626;2023-05-07T03:00:38;8.20;;;4.87;;
8312;SDS011;4194;43.408;24.626;2023-05-07T03:03:03;8.13;;;5.23;;
8312;SDS011;4194;43.408;24.626;2023-05-07T03:05:29;6.90;;;4.90;;
8312;SDS011;4194;43.408;24.626;2023-05-07T03:07:55;5.53;;;4.73;;
8312;SDS011;4194;43.408;24.626;2023-05-07T03:10:21;7.77;;;5.50;;
8312;SDS011;4194;43.408;24.626;2023-05-07T03:12:46;5.63;;;4.90;;
8312;SDS011;4194;43.408;24.626;2023-05-07T03:15:12;9.70;;;5.67;;
8312;SDS011;4194;43.408;24.626;2023-05-07T03:17:38;6.13;;;5.33;;
8312;SDS011;4194;43.408;24.626;2023-05-07T03:20:04;5.67;;;5.00;;
8312;SDS011;4194;43.408;24.626;2023-05-07T03:22:30;6.20;;;5.57;;
8312;SDS011;4194;43.408;24.626;2023-05-07T03:24:56;6.17;;;5.43;;
8312;SDS011;4194;43.408;24.626;2023-05-07T03:27:22;5.90;;;4.77;;
8312;SDS011;4194;43.408;24.626;2023-05-07T03:29:48;6.10;;;5.27;;
8312;SDS011;4194;43.408;24.626;2023-05-07T03:32:13;9.40;;;5.30;;
8312;SDS011;4194;43.408;24.626;2023-05-07T03:34:39;8.47;;;4.90;;
8312;SDS011;4194;43.408;24.626;2023-05-07T03:37:05;7.30;;;5.07;;
8312;SDS011;4194;43.408;24.626;2023-05-07T03:39:31;10.47;;;5.43;;
8312;SDS011;4194;43.408;24.626;2023-05-07T03:41:57;8.07;;;4.83;;
8312;SDS011;4194;43.408;24.626;2023-05-07T03:44:23;7.90;;;4.93;;
8312;SDS011;4194;43.408;24.626;2023-05-07T03:46:49;5.90;;;4.93;;
8312;SDS011;4194;43.408;24.626;2023-05-07T03:49:14;9.27;;;5.30;;
8312;SDS011;4194;43.408;24.626;2023-05-07T03:51:40;6.30;;;4.60;;
8312;SDS011;4194;43.408;24.626;2023-05-07T03:54:06;6.37;;;4.80;;
8312;SDS011;4194;43.408;24.626;2023-05-07T03:56:32;5.70;;;5.10;;
8312;SDS011;4194;43.408;24.626;2023-05-07T03:58:58;11.30;;;4.90;;
8312;SDS011;4194;43.408;24.626;2023-05-07T04:01:23;10.37;;;5.23;;
8312;SDS011;4194;43.408;24.626;2023-05-07T04:03:49;6.93;;;5.20;;
8312;SDS011;4194;43.408;24.626;2023-05-07T04:06:15;9.93;;;5.63;;
8312;SDS011;4194;43.408;24.626;2023-05-07T04:08:42;11.47;;;5.27;;
8312;SDS011;4194;43.408;24.626;2023-05-07T04:11:08;8.73;;;6.00;;
8312;SDS011;4194;43.408;24.626;2023-05-07T04:13:33;10.43;;;5.83;;
8312;SDS011;4194;43.408;24.626;2023-05-07T04:16:00;7.20;;;4.97;;
8312;SDS011;4194;43.408;24.626;2023-05-07T04:18:27;8.20;;;5.23;;
8312;SDS011;4194;43.408;24.626;2023-05-07T04:20:53;8.53;;;5.43;;
8312;SDS011;4194;43.408;24.626;2023-05-07T04:23:19;9.63;;;5.47;;
8312;SDS011;4194;43.408;24.626;2023-05-07T04:25:44;7.63;;;5.73;;
8312;SDS011;4194;43.408;24.626;2023-05-07T04:28:10;7.47;;;5.60;;
8312;SDS011;4194;43.408;24.626;2023-05-07T04:30:37;10.57;;;6.47;;
8312;SDS011;4194;43.408;24.626;2023-05-07T04:33:03;8.77;;;5.90;;
8312;SDS011;4194;43.408;24.626;2023-05-07T04:35:29;9.30;;;5.83;;
8312;SDS011;4194;43.408;24.626;2023-05-07T04:37:55;8.60;;;5.80;;
8312;SDS011;4194;43.408;24.626;2023-05-07T04:40:20;10.20;;;6.37;;
8312;SDS011;4194;43.408;24.626;2023-05-07T04:42:46;7.13;;;5.50;;
8312;SDS011;4194;43.408;24.626;2023-05-07T04:45:11;9.33;;;6.03;;
8312;SDS011;4194;43.408;24.626;2023-05-07T04:47:37;9.40;;;6.07;;
8312;SDS011;4194;43.408;24.626;2023-05-07T04:50:04;7.53;;;6.00;;
8312;SDS011;4194;43.408;24.626;2023-05-07T04:52:31;8.83;;;5.40;;
8312;SDS011;4194;43.408;24.626;2023-05-07T04:54:58;11.80;;;6.17;;
8312;SDS011;4194;43.408;24.626;2023-05-07T04:57:25;11.30;;;6.00;;
8312;SDS011;4194;43.408;24.626;2023-05-07T04:59:51;9.77;;;6.23;;
8312;SDS011;4194;43.408;24.626;2023-05-07T05:02:17;7.40;;;6.40;;
8312;SDS011;4194;43.408;24.626;2023-05-07T05:04:42;10.67;;;5.57;;
8312;SDS011;4194;43.408;24.626;2023-05-07T05:07:08;11.20;;;5.60;;
8312;SDS011;4194;43.408;24.626;2023-05-07T05:09:34;8.27;;;5.63;;
8312;SDS011;4194;43.408;24.626;2023-05-07T05:11:59;8.07;;;6.13;;
8312;SDS011;4194;43.408;24.626;2023-05-07T05:14:25;9.10;;;5.60;;
8312;SDS011;4194;43.408;24.626;2023-05-07T05:16:51;10.17;;;5.73;;
8312;SDS011;4194;43.408;24.626;2023-05-07T05:19:16;7.23;;;5.67;;
8312;SDS011;4194;43.408;24.626;2023-05-07T05:21:42;8.57;;;6.03;;
8312;SDS011;4194;43.408;24.626;2023-05-07T05:24:08;9.60;;;5.30;;
8312;SDS011;4194;43.408;24.626;2023-05-07T05:26:34;11.83;;;5.77;;
8312;SDS011;4194;43.408;24.626;2023-05-07T05:28:59;7.17;;;5.23;;
8312;SDS011;4194;43.408;24.626;2023-05-07T05:31:25;9.00;;;5.47;;
8312;SDS011;4194;43.408;24.626;2023-05-07T05:33:51;7.03;;;5.83;;
8312;SDS011;4194;43.408;24.626;2023-05-07T05:36:17;7.77;;;5.80;;
8312;SDS011;4194;43.408;24.626;2023-05-07T05:38:42;8.17;;;5.37;;
8312;SDS011;4194;43.408;24.626;2023-05-07T05:41:09;7.03;;;5.47;;
8312;SDS011;4194;43.408;24.626;2023-05-07T05:43:35;10.60;;;5.27;;
8312;SDS011;4194;43.408;24.626;2023-05-07T05:46:01;7.43;;;5.40;;
8312;SDS011;4194;43.408;24.626;2023-05-07T05:48:28;11.37;;;5.77;;
8312;SDS011;4194;43.408;24.626;2023-05-07T05:50:54;10.87;;;5.07;;
8312;SDS011;4194;43.408;24.626;2023-05-07T05:53:20;7.70;;;4.83;;
8312;SDS011;4194;43.408;24.626;2023-05-07T05:55:45;6.23;;;4.77;;
8312;SDS011;4194;43.408;24.626;2023-05-07T05:58:11;5.80;;;4.70;;
8312;SDS011;4194;43.408;24.626;2023-05-07T06:00:37;7.70;;;5.20;;
8312;SDS011;4194;43.408;24.626;2023-05-07T06:03:03;4.63;;;4.17;;
8312;SDS011;4194;43.408;24.626;2023-05-07T06:05:28;7.73;;;3.93;;
8312;SDS011;4194;43.408;24.626;2023-05-07T06:07:54;3.70;;;2.63;;
8312;SDS011;4194;43.408;24.626;2023-05-07T06:10:21;6.23;;;2.30;;
8312;SDS011;4194;43.408;24.626;2023-05-07T06:12:46;3.20;;;2.00;;
8312;SDS011;4194;43.408;24.626;2023-05-07T06:15:12;2.90;;;1.57;;
8312;SDS011;4194;43.408;24.626;2023-05-07T06:17:38;2.60;;;1.77;;
8312;SDS011;4194;43.408;24.626;2023-05-07T06:20:03;5.57;;;1.80;;
8312;SDS011;4194;43.408;24.626;2023-05-07T06:22:30;4.83;;;1.70;;
8312;SDS011;4194;43.408;24.626;2023-05-07T06:24:55;2.57;;;1.73;;
8312;SDS011;4194;43.408;24.626;2023-05-07T06:27:21;6.23;;;2.43;;
8312;SDS011;4194;43.408;24.626;2023-05-07T06:29:47;4.87;;;1.80;;
8312;SDS011;4194;43.408;24.626;2023-05-07T06:32:13;5.03;;;2.07;;
8312;SDS011;4194;43.408;24.626;2023-05-07T06:34:39;1.37;;;1.27;;
8312;SDS011;4194;43.408;24.626;2023-05-07T06:37:06;5.07;;;1.37;;
8312;SDS011;4194;43.408;24.626;2023-05-07T06:39:32;2.87;;;1.40;;
8312;SDS011;4194;43.408;24.626;2023-05-07T06:41:58;3.80;;;1.60;;
8312;SDS011;4194;43.408;24.626;2023-05-07T06:44:24;3.97;;;1.73;;
8312;SDS011;4194;43.408;24.626;2023-05-07T06:46:50;1.80;;;1.10;;
8312;SDS011;4194;43.408;24.626;2023-05-07T06:49:16;1.80;;;1.20;;
8312;SDS011;4194;43.408;24.626;2023-05-07T06:51:41;2.43;;;1.37;;
8312;SDS011;4194;43.408;24.626;2023-05-07T06:54:07;4.30;;;1.40;;
8312;SDS011;4194;43.408;24.626;2023-05-07T06:56:33;2.07;;;1.47;;
8312;SDS011;4194;43.408;24.626;2023-05-07T06:58:59;1.87;;;1.23;;
8312;SDS011;4194;43.408;24.626;2023-05-07T07:01:26;7.93;;;4.07;;
8312;SDS011;4194;43.408;24.626;2023-05-07T07:03:51;2.33;;;1.40;;
8312;SDS011;4194;43.408;24.626;2023-05-07T07:06:17;1.40;;;1.30;;
8312;SDS011;4194;43.408;24.626;2023-05-07T07:08:43;3.13;;;1.53;;
8312;SDS011;4194;43.408;24.626;2023-05-07T07:11:09;2.20;;;1.43;;
8312;SDS011;4194;43.408;24.626;2023-05-07T07:13:35;3.30;;;1.63;;
8312;SDS011;4194;43.408;24.626;2023-05-07T07:16:01;3.13;;;1.63;;
8312;SDS011;4194;43.408;24.626;2023-05-07T07:18:27;2.80;;;1.57;;
8312;SDS011;4194;43.408;24.626;2023-05-07T07:20:53;1.30;;;1.20;;
8312;SDS011;4194;43.408;24.626;2023-05-07T07:23:19;1.87;;;1.60;;
8312;SDS011;4194;43.408;24.626;2023-05-07T07:25:45;4.80;;;1.60;;
8312;SDS011;4194;43.408;24.626;2023-05-07T07:28:11;3.20;;;1.63;;
8312;SDS011;4194;43.408;24.626;2023-05-07T07:30:37;1.63;;;1.43;;
8312;SDS011;4194;43.408;24.626;2023-05-07T07:33:03;4.03;;;1.50;;
8312;SDS011;4194;43.408;24.626;2023-05-07T07:35:30;3.00;;;1.27;;
8312;SDS011;4194;43.408;24.626;2023-05-07T07:37:56;3.67;;;1.60;;
8312;SDS011;4194;43.408;24.626;2023-05-07T07:40:22;1.97;;;1.20;;
8312;SDS011;4194;43.408;24.626;2023-05-07T07:42:48;5.47;;;1.47;;
8312;SDS011;4194;43.408;24.626;2023-05-07T07:45:14;2.60;;;1.37;;
8312;SDS011;4194;43.408;24.626;2023-05-07T07:47:39;2.53;;;1.47;;
8312;SDS011;4194;43.408;24.626;2023-05-07T07:50:06;4.30;;;1.53;;
8312;SDS011;4194;43.408;24.626;2023-05-07T07:52:32;3.53;;;1.73;;
8312;SDS011;4194;43.408;24.626;2023-05-07T07:54:58;2.47;;;1.38;;
8312;SDS011;4194;43.408;24.626;2023-05-07T07:57:24;2.97;;;1.10;;
8312;SDS011;4194;43.408;24.626;2023-05-07T07:59:49;1.53;;;1.20;;
8312;SDS011;4194;43.408;24.626;2023-05-07T08:02:15;5.73;;;1.47;;
8312;SDS011;4194;43.408;24.626;2023-05-07T08:04:42;3.53;;;1.70;;
8312;SDS011;4194;43.408;24.626;2023-05-07T08:07:08;2.20;;;1.30;;
8312;SDS011;4194;43.408;24.626;2023-05-07T08:09:35;2.23;;;1.53;;
8312;SDS011;4194;43.408;24.626;2023-05-07T08:12:01;5.63;;;1.30;;
8312;SDS011;4194;43.408;24.626;2023-05-07T08:14:27;4.17;;;1.27;;
8312;SDS011;4194;43.408;24.626;2023-05-07T08:16:53;2.17;;;1.20;;
8312;SDS011;4194;43.408;24.626;2023-05-07T08:19:19;1.93;;;1.23;;
8312;SDS011;4194;43.408;24.626;2023-05-07T08:21:46;1.77;;;1.40;;
8312;SDS011;4194;43.408;24.626;2023-05-07T08:24:15;3.80;;;1.30;;
8312;SDS011;4194;43.408;24.626;2023-05-07T08:26:41;2.97;;;1.37;;
8312;SDS011;4194;43.408;24.626;2023-05-07T08:29:08;3.27;;;1.20;;
8312;SDS011;4194;43.408;24.626;2023-05-07T08:31:33;2.47;;;0.93;;
8312;SDS011;4194;43.408;24.626;2023-05-07T08:33:59;1.50;;;1.27;;
8312;SDS011;4194;43.408;24.626;2023-05-07T08:36:25;3.37;;;1.43;;
8312;SDS011;4194;43.408;24.626;2023-05-07T08:38:51;2.00;;;1.07;;
8312;SDS011;4194;43.408;24.626;2023-05-07T08:41:17;4.03;;;1.20;;
8312;SDS011;4194;43.408;24.626;2023-05-07T08:43:45;2.00;;;1.33;;
8312;SDS011;4194;43.408;24.626;2023-05-07T08:46:18;3.73;;;1.50;;
8312;SDS011;4194;43.408;24.626;2023-05-07T08:48:45;1.10;;;1.10;;
8312;SDS011;4194;43.408;24.626;2023-05-07T08:51:15;2.23;;;1.20;;
8312;SDS011;4194;43.408;24.626;2023-05-07T08:53:42;2.70;;;0.97;;
8312;SDS011;4194;43.408;24.626;2023-05-07T08:56:08;1.87;;;1.30;;
8312;SDS011;4194;43.408;24.626;2023-05-07T08:58:35;1.60;;;1.17;;
8312;SDS011;4194;43.408;24.626;2023-05-07T09:01:02;2.73;;;1.33;;
8312;SDS011;4194;43.408;24.626;2023-05-07T09:03:32;3.37;;;1.40;;
8312;SDS011;4194;43.408;24.626;2023-05-07T09:05:58;2.13;;;1.30;;
8312;SDS011;4194;43.408;24.626;2023-05-07T09:08:24;1.37;;;1.13;;
8312;SDS011;4194;43.408;24.626;2023-05-07T09:10:51;3.70;;;1.00;;
8312;SDS011;4194;43.408;24.626;2023-05-07T09:13:17;1.23;;;1.13;;
8312;SDS011;4194;43.408;24.626;2023-05-07T09:15:43;2.20;;;1.33;;
8312;SDS011;4194;43.408;24.626;2023-05-07T09:18:09;1.20;;;1.10;;
8312;SDS011;4194;43.408;24.626;2023-05-07T09:20:39;2.10;;;1.10;;
8312;SDS011;4194;43.408;24.626;2023-05-07T09:23:06;2.53;;;0.90;;
8312;SDS011;4194;43.408;24.626;2023-05-07T09:25:33;5.13;;;1.20;;
8312;SDS011;4194;43.408;24.626;2023-05-07T09:28:00;1.50;;;1.00;;
8312;SDS011;4194;43.408;24.626;2023-05-07T09:33:48;1.27;;;1.00;;
8312;SDS011;4194;43.408;24.626;2023-05-07T09:36:14;1.57;;;1.17;;
8312;SDS011;4194;43.408;24.626;2023-05-07T09:38:40;1.87;;;1.10;;
8312;SDS011;4194;43.408;24.626;2023-05-07T09:41:07;2.80;;;1.17;;
8312;SDS011;4194;43.408;24.626;2023-05-07T09:43:35;3.63;;;1.10;;
8312;SDS011;4194;43.408;24.626;2023-05-07T09:46:06;4.23;;;1.30;;
8312;SDS011;4194;43.408;24.626;2023-05-07T09:48:41;2.80;;;1.20;;
8312;SDS011;4194;43.408;24.626;2023-05-07T09:51:22;1.57;;;1.17;;
8312;SDS011;4194;43.408;24.626;2023-05-07T09:53:47;2.67;;;1.10;;
8312;SDS011;4194;43.408;24.626;2023-05-07T09:56:15;2.90;;;1.40;;
8312;SDS011;4194;43.408;24.626;2023-05-07T09:58:42;3.03;;;1.30;;
8312;SDS011;4194;43.408;24.626;2023-05-07T10:01:10;3.53;;;1.30;;
8312;SDS011;4194;43.408;24.626;2023-05-07T10:03:37;4.43;;;1.20;;
8312;SDS011;4194;43.408;24.626;2023-05-07T10:06:05;1.53;;;1.30;;
8312;SDS011;4194;43.408;24.626;2023-05-07T10:08:33;1.70;;;1.40;;
8312;SDS011;4194;43.408;24.626;2023-05-07T10:11:00;2.27;;;1.50;;
8312;SDS011;4194;43.408;24.626;2023-05-07T10:13:28;2.17;;;1.37;;
8312;SDS011;4194;43.408;24.626;2023-05-07T10:15:54;3.57;;;1.30;;
8312;SDS011;4194;43.408;24.626;2023-05-07T10:18:21;3.80;;;1.37;;
8312;SDS011;4194;43.408;24.626;2023-05-07T10:20:48;3.33;;;1.30;;
8312;SDS011;4194;43.408;24.626;2023-05-07T10:23:18;1.73;;;1.50;;
8312;SDS011;4194;43.408;24.626;2023-05-07T10:25:49;2.40;;;1.50;;
8312;SDS011;4194;43.408;24.626;2023-05-07T10:28:15;4.20;;;1.10;;
8312;SDS011;4194;43.408;24.626;2023-05-07T10:30:56;1.70;;;1.20;;
8312;SDS011;4194;43.408;24.626;2023-05-07T10:33:38;1.47;;;1.13;;
8312;SDS011;4194;43.408;24.626;2023-05-07T10:36:05;9.23;;;1.23;;
8312;SDS011;4194;43.408;24.626;2023-05-07T10:38:32;1.47;;;1.00;;
8312;SDS011;4194;43.408;24.626;2023-05-07T10:40:58;5.60;;;1.13;;
8312;SDS011;4194;43.408;24.626;2023-05-07T10:43:24;12.87;;;1.70;;
8312;SDS011;4194;43.408;24.626;2023-05-07T10:48:34;2.90;;;0.90;;
8312;SDS011;4194;43.408;24.626;2023-05-07T10:51:26;2.30;;;0.90;;
8312;SDS011;4194;43.408;24.626;2023-05-07T10:54:34;1.33;;;1.10;;
8312;SDS011;4194;43.408;24.626;2023-05-07T10:56:44;1.83;;;1.07;;
8312;SDS011;4194;43.408;24.626;2023-05-07T11:01:57;5.03;;;1.40;;
8312;SDS011;4194;43.408;24.626;2023-05-07T11:04:28;1.43;;;1.30;;
8312;SDS011;4194;43.408;24.626;2023-05-07T11:12:17;3.53;;;1.20;;
8312;SDS011;4194;43.408;24.626;2023-05-07T11:15:08;1.60;;;1.30;;
8312;SDS011;4194;43.408;24.626;2023-05-07T11:17:34;2.53;;;1.13;;
8312;SDS011;4194;43.408;24.626;2023-05-07T11:20:17;2.57;;;1.40;;
8312;SDS011;4194;43.408;24.626;2023-05-07T11:22:43;1.30;;;1.00;;
8312;SDS011;4194;43.408;24.626;2023-05-07T11:25:09;1.57;;;1.27;;
8312;SDS011;4194;43.408;24.626;2023-05-07T11:27:36;1.63;;;1.30;;
8312;SDS011;4194;43.408;24.626;2023-05-07T11:30:01;5.43;;;1.20;;
8312;SDS011;4194;43.408;24.626;2023-05-07T11:32:28;1.17;;;1.00;;
8312;SDS011;4194;43.408;24.626;2023-05-07T11:34:55;1.77;;;1.30;;
8312;SDS011;4194;43.408;24.626;2023-05-07T11:37:22;3.00;;;1.63;;
8312;SDS011;4194;43.408;24.626;2023-05-07T11:39:49;2.22;;;1.55;;
8312;SDS011;4194;43.408;24.626;2023-05-07T11:42:37;3.40;;;1.98;;
8312;SDS011;4194;43.408;24.626;2023-05-07T11:45:04;2.05;;;1.35;;
8312;SDS011;4194;43.408;24.626;2023-05-07T11:47:31;1.30;;;1.10;;
8312;SDS011;4194;43.408;24.626;2023-05-07T11:49:57;6.23;;;1.50;;
8312;SDS011;4194;43.408;24.626;2023-05-07T11:52:31;3.47;;;1.53;;
8312;SDS011;4194;43.408;24.626;2023-05-07T11:54:58;1.97;;;1.10;;
8312;SDS011;4194;43.408;24.626;2023-05-07T11:57:25;2.63;;;1.30;;
8312;SDS011;4194;43.408;24.626;2023-05-07T12:02:20;2.37;;;1.50;;
8312;SDS011;4194;43.408;24.626;2023-05-07T12:04:46;1.48;;;1.00;;
8312;SDS011;4194;43.408;24.626;2023-05-07T12:07:12;2.10;;;1.35;;
8312;SDS011;4194;43.408;24.626;2023-05-07T12:09:42;3.33;;;1.77;;
8312;SDS011;4194;43.408;24.626;2023-05-07T12:12:07;2.85;;;1.42;;
8312;SDS011;4194;43.408;24.626;2023-05-07T12:14:37;2.30;;;2.10;;
8312;SDS011;4194;43.408;24.626;2023-05-07T12:17:04;2.15;;;1.20;;
8312;SDS011;4194;43.408;24.626;2023-05-07T12:19:30;3.05;;;1.38;;
8312;SDS011;4194;43.408;24.626;2023-05-07T12:21:58;1.90;;;1.70;;
8312;SDS011;4194;43.408;24.626;2023-05-07T12:24:24;3.72;;;1.63;;
8312;SDS011;4194;43.408;24.626;2023-05-07T12:26:49;1.40;;;1.30;;
8312;SDS011;4194;43.408;24.626;2023-05-07T12:29:15;1.42;;;1.20;;
8312;SDS011;4194;43.408;24.626;2023-05-07T12:31:41;2.95;;;1.48;;
8312;SDS011;4194;43.408;24.626;2023-05-07T12:34:12;3.63;;;1.58;;
8312;SDS011;4194;43.408;24.626;2023-05-07T12:36:38;2.72;;;1.45;;
8312;SDS011;4194;43.408;24.626;2023-05-07T12:39:05;3.83;;;1.20;;
8312;SDS011;4194;43.408;24.626;2023-05-07T12:41:36;1.85;;;1.60;;
8312;SDS011;4194;43.408;24.626;2023-05-07T12:44:18;1.40;;;1.30;;
8312;SDS011;4194;43.408;24.626;2023-05-07T12:46:43;1.35;;;1.17;;
8312;SDS011;4194;43.408;24.626;2023-05-07T12:49:09;2.88;;;1.50;;
8312;SDS011;4194;43.408;24.626;2023-05-07T12:51:35;2.28;;;1.42;;
8312;SDS011;4194;43.408;24.626;2023-05-07T12:54:00;2.83;;;1.13;;
8312;SDS011;4194;43.408;24.626;2023-05-07T12:56:26;4.65;;;1.35;;
8312;SDS011;4194;43.408;24.626;2023-05-07T12:58:52;1.58;;;1.48;;
8312;SDS011;4194;43.408;24.626;2023-05-07T13:01:28;1.73;;;1.60;;
8312;SDS011;4194;43.408;24.626;2023-05-07T13:03:55;2.30;;;1.90;;
8312;SDS011;4194;43.408;24.626;2023-05-07T13:06:25;1.58;;;1.40;;
8312;SDS011;4194;43.408;24.626;2023-05-07T13:08:51;1.48;;;1.38;;
8312;SDS011;4194;43.408;24.626;2023-05-07T13:11:16;1.55;;;1.45;;
8312;SDS011;4194;43.408;24.626;2023-05-07T13:13:42;2.25;;;1.20;;
8312;SDS011;4194;43.408;24.626;2023-05-07T13:16:08;1.45;;;1.35;;
8312;SDS011;4194;43.408;24.626;2023-05-07T13:18:36;1.50;;;1.40;;
8312;SDS011;4194;43.408;24.626;2023-05-07T13:21:03;4.72;;;1.52;;
8312;SDS011;4194;43.408;24.626;2023-05-07T13:23:29;1.77;;;1.30;;
8312;SDS011;4194;43.408;24.626;2023-05-07T13:25:55;2.13;;;1.45;;
8312;SDS011;4194;43.408;24.626;2023-05-07T13:28:21;4.80;;;1.55;;
8312;SDS011;4194;43.408;24.626;2023-05-07T13:30:52;1.58;;;1.48;;
8312;SDS011;4194;43.408;24.626;2023-05-07T13:33:18;1.60;;;1.40;;
8312;SDS011;4194;43.408;24.626;2023-05-07T13:35:44;2.60;;;1.27;;
8312;SDS011;4194;43.408;24.626;2023-05-07T13:38:12;1.50;;;1.40;;
8312;SDS011;4194;43.408;24.626;2023-05-07T13:40:38;3.05;;;1.65;;
8312;SDS011;4194;43.408;24.626;2023-05-07T13:43:05;2.60;;;2.10;;
8312;SDS011;4194;43.408;24.626;2023-05-07T13:45:30;3.78;;;1.50;;
8312;SDS011;4194;43.408;24.626;2023-05-07T13:47:56;2.10;;;1.30;;
8312;SDS011;4194;43.408;24.626;2023-05-07T13:50:22;3.60;;;1.63;;
8312;SDS011;4194;43.408;24.626;2023-05-07T13:52:48;3.67;;;1.52;;
8312;SDS011;4194;43.408;24.626;2023-05-07T13:55:17;1.63;;;1.17;;
8312;SDS011;4194;43.408;24.626;2023-05-07T13:57:43;2.70;;;1.48;;
8312;SDS011;4194;43.408;24.626;2023-05-07T14:00:09;1.35;;;1.25;;
8312;SDS011;4194;43.408;24.626;2023-05-07T14:02:35;3.10;;;1.27;;
8312;SDS011;4194;43.408;24.626;2023-05-07T14:05:01;1.83;;;1.27;;
8312;SDS011;4194;43.408;24.626;2023-05-07T14:07:26;4.15;;;1.48;;
8312;SDS011;4194;43.408;24.626;2023-05-07T14:09:53;2.95;;;1.50;;
8312;SDS011;4194;43.408;24.626;2023-05-07T14:12:19;1.45;;;1.15;;
8312;SDS011;4194;43.408;24.626;2023-05-07T14:14:45;1.55;;;1.35;;
8312;SDS011;4194;43.408;24.626;2023-05-07T14:17:11;3.13;;;1.45;;
8312;SDS011;4194;43.408;24.626;2023-05-07T14:19:37;2.47;;;1.50;;
8312;SDS011;4194;43.408;24.626;2023-05-07T14:22:03;3.30;;;1.70;;
8312;SDS011;4194;43.408;24.626;2023-05-07T14:24:29;3.28;;;1.55;;
8312;SDS011;4194;43.408;24.626;2023-05-07T14:26:55;2.65;;;1.60;;
8312;SDS011;4194;43.408;24.626;2023-05-07T14:29:21;2.92;;;1.40;;
8312;SDS011;4194;43.408;24.626;2023-05-07T14:31:47;2.45;;;1.15;;
8312;SDS011;4194;43.408;24.626;2023-05-07T14:34:13;1.63;;;1.20;;
8312;SDS011;4194;43.408;24.626;2023-05-07T14:36:39;1.55;;;1.42;;
8312;SDS011;4194;43.408;24.626;2023-05-07T14:39:04;3.00;;;1.50;;
8312;SDS011;4194;43.408;24.626;2023-05-07T14:41:31;4.00;;;1.33;;
8312;SDS011;4194;43.408;24.626;2023-05-07T14:43:58;1.50;;;1.30;;
8312;SDS011;4194;43.408;24.626;2023-05-07T14:46:24;3.33;;;1.40;;
8312;SDS011;4194;43.408;24.626;2023-05-07T14:48:51;2.83;;;1.30;;
8312;SDS011;4194;43.408;24.626;2023-05-07T14:51:18;3.55;;;1.33;;
8312;SDS011;4194;43.408;24.626;2023-05-07T14:53:45;3.50;;;1.40;;
8312;SDS011;4194;43.408;24.626;2023-05-07T14:56:11;4.45;;;1.67;;
8312;SDS011;4194;43.408;24.626;2023-05-07T14:58:37;5.50;;;1.45;;
8312;SDS011;4194;43.408;24.626;2023-05-07T15:01:03;8.18;;;2.72;;
8312;SDS011;4194;43.408;24.626;2023-05-07T15:03:28;3.42;;;1.75;;
8312;SDS011;4194;43.408;24.626;2023-05-07T15:05:55;4.18;;;1.38;;
8312;SDS011;4194;43.408;24.626;2023-05-07T15:08:20;3.58;;;1.75;;
8312;SDS011;4194;43.408;24.626;2023-05-07T15:10:46;3.42;;;1.52;;
8312;SDS011;4194;43.408;24.626;2023-05-07T15:13:12;5.03;;;1.45;;